Shaw Air Force Base
KSSC : now visible

Airfield :











YOU CAN JOIN US ON...

 
LOGIN :

Register | Disclaimer

   EN    FR    IT 

 









Legend :    VFR   Marginal VFR   IFR   Intensive IFR   Very Intensive IFR
Visi :
Ceiling :
>= 8 km
>= 3000ft
5 to 8 km
1000 to 3000 ft
1500m to 5 km
500 to 1000 ft
800 to 1500m
200 to 500 ft
< 800m
< 200 ft
Symbols :   Thunderstorms  Fog  Heavy snow  Heavy precipitations  Wind > 20 kt






- Airport Elevation : 241 ft


KSSC - Shaw Air Force Base

CURRENT METAR :
  • 191722Z 03011KT 10SM OVC011 12/11 A3028 RMK AO2A DZB08E22 CIG 010 RWY22 SLP255 $

EXPIRED METARs :
  • 191708Z 04014KT 10SM -DZ OVC010 12/11 A3027 RMK AO2A DZB08 SLP252 $
  • 191656Z 04015KT 10SM OVC010 12/11 A3027 RMK AO2A RAE01DZB01E15DZB25E44 AO2A SLP252 P0000 T01220108 $
  • 191636Z 04018KT 7SM -DZ OVC009 12/11 A3027 RMK AO2A RAE01DZB01E15DZB25 SLP252 $
  • 191616Z 04015KT 4SM BR OVC007 12/12 A3028 RMK AO2A RAE01DZB01E15 SLP255 $
  • 191556Z 03014G21KT 2SM -RA BR BKN006 OVC009 12/11 A3027 RMK AO2A SLP252 P0001 T01200109 $
  • 191522Z 02015G21KT 2SM -RA BR OVC006 13/12 A3025 RMK AO2A SLP245 $
  • 191510Z 01017KT 1 3/4SM -RA BR OVC006 14/12 A3024 RMK AO2A CIG 005 RWY22 PRESRR SLP241 $
  • 191456Z 02016KT 1 1/2SM -RA BR OVC006 15/14 A3022 RMK AO2A RAE05DZB05E43RAB50 AO2A SLP234 P0001 60006 T01540139 52035 $
  • 191453Z 01014KT 1 1/2SM -RA BR OVC006 16/15 A3022 RMK RAE05DZB05E43RAB50 VIS E 1 SLP234 $

TAF TAF KSSC
Valid from the 19 at 16:00 until the 20 at 22:00 UTC


191600Z 1916/2022 02012G20KT 3200 -RA BR OVC006 QNH3025INS
BECMG 1916/1917 03012G18KT 6000 -SHRA BR BKN007 OVC010 QNH3026INS
BECMG 1917/1918 04012G18KT 9999 VCSH BKN010 OVC050 QNH3025INS
BECMG 1923/1924 05009KT 9999 NSW BKN020 OVC150 QNH3030INS
BECMG 2012/2013 05010G16KT 6000 -RA BR BKN010 OVC040 QNH3025INS
BECMG 2015/2016 04012G20KT 4800 -RA BR BKN004 OVC007 QNH3015INS TX12/1916Z TN04/2012Z



MET'MAP, your aeronautical weather chart ! - Copyright ORBIFLY December 2007 - Disclaimer

ORBIFLY MET'MAP TEAM :

Programming & Development : Alexandra Zaïnal
Concept & original design : Baudouin d'Aumeries
Assistance for programming : Marc-Olivier Méhu
Technical & hardware support : Manuel Goepfert

Contact : metmap@orbifly.com




SOURCES & CREDITS :

   NOAA       Earth
Advisory